createdAt,value
2016-06-16T07:16:00.342Z,792
2016-06-16T07:16:46.095Z,840
2016-06-16T07:17:46.067Z,808
2016-06-16T07:18:46.038Z,900
2016-06-16T07:19:46.136Z,860
2016-06-16T07:20:45.982Z,832
2016-06-16T07:21:46.313Z,736
2016-06-16T07:22:45.941Z,792
2016-06-16T07:23:46.179Z,828
2016-06-16T07:24:45.964Z,824
2016-06-16T07:25:45.919Z,832
2016-06-16T07:26:45.907Z,828
2016-06-16T07:28:00.878Z,792
2016-06-16T07:28:45.913Z,892
2016-06-16T07:29:45.838Z,816
2016-06-16T07:30:45.794Z,856
2016-06-16T07:31:46.000Z,944
2016-06-16T07:32:45.878Z,1064
2016-06-16T07:33:46.085Z,1128
2016-06-16T07:48:36.802Z,1324
2016-06-16T07:48:36.833Z,1332
2016-06-16T07:48:52.443Z,1304
2016-06-16T07:49:52.164Z,1288
2016-06-16T07:50:51.902Z,1300
2016-06-16T07:51:52.186Z,1328
2016-06-16T07:52:52.236Z,1288
2016-06-16T07:53:52.020Z,1280
2016-06-16T07:54:52.180Z,1276
2016-06-16T07:55:51.949Z,1284
2016-06-16T07:56:51.968Z,1256
2016-06-16T07:57:51.938Z,1244
2016-06-16T07:58:52.004Z,1260
2016-06-16T07:59:51.789Z,1256
2016-06-16T08:00:52.292Z,1228
2016-06-16T08:01:51.873Z,1196
2016-06-16T08:02:51.017Z,1168
2016-06-16T08:03:51.848Z,1176
2016-06-16T08:04:51.867Z,1152
2016-06-16T08:05:51.807Z,1128
2016-06-16T08:06:52.077Z,1108
2016-06-16T08:07:51.767Z,1076
2016-06-16T08:08:51.708Z,1012
2016-06-16T08:09:51.664Z,964
2016-06-16T08:10:51.604Z,952
2016-06-16T08:11:51.638Z,924
2016-06-16T08:12:51.985Z,932
2016-06-16T08:13:51.567Z,932
2016-06-16T08:14:51.537Z,936
2016-06-16T08:15:51.448Z,908
2016-06-16T08:16:51.888Z,904
2016-06-16T08:17:51.594Z,896
2016-06-16T08:18:51.833Z,880
2016-06-16T08:20:08.338Z,888
2016-06-16T08:20:54.306Z,908
2016-06-16T08:21:51.435Z,940
2016-06-16T08:22:51.406Z,988
2016-06-16T08:23:51.441Z,1056
2016-06-16T08:24:51.646Z,1072
2016-06-16T08:25:51.384Z,1108
2016-06-16T08:26:51.340Z,1148
2016-06-16T08:27:51.547Z,1144
2016-06-16T08:28:51.316Z,1192
2016-06-16T08:29:51.381Z,1236
2016-06-16T08:30:51.806Z,1256
2016-06-16T08:31:51.168Z,1240
2016-06-16T08:32:51.203Z,1120
2016-06-16T08:33:51.315Z,1128
2016-06-16T08:34:51.147Z,1164
2016-06-16T08:35:51.150Z,1244
2016-06-16T08:36:50.934Z,1292
2016-06-16T08:37:51.140Z,1328
2016-06-16T08:38:50.987Z,1468
2016-06-16T08:39:51.115Z,1468
2016-06-16T08:40:51.071Z,1416
2016-06-16T08:41:51.184Z,1396
2016-06-16T08:42:51.391Z,1340
2016-06-16T08:43:50.956Z,1284
2016-06-16T08:44:51.053Z,1224
2016-06-16T08:45:51.056Z,1208
2016-06-16T08:46:50.919Z,1224
2016-06-16T08:47:51.374Z,1232
2016-06-16T08:48:16.596Z,1308
2016-06-16T08:48:30.940Z,1288
2016-06-16T08:49:30.865Z,1368
2016-06-16T08:50:30.807Z,1380
2016-06-16T08:51:30.793Z,1424
2016-06-16T08:52:30.702Z,1476
2016-06-16T08:53:30.800Z,1492
2016-06-16T08:54:30.787Z,1608
2016-06-16T08:55:30.962Z,1604
2016-06-16T08:56:31.058Z,1472
2016-06-16T08:57:30.718Z,1468
2016-06-16T08:58:30.517Z,1340
2016-06-16T08:59:30.662Z,1372
2016-06-16T09:00:30.649Z,1260
2016-06-16T09:01:30.590Z,1344
2016-06-16T09:02:31.061Z,1284
2016-06-16T09:03:30.611Z,1232
2016-06-16T09:04:30.442Z,1272
2016-06-16T09:05:30.509Z,1236
2016-06-16T09:06:30.792Z,1172
2016-06-16T09:07:30.654Z,1132
2016-06-16T09:08:30.923Z,1168
2016-06-16T09:09:30.318Z,1212
2016-06-16T09:10:30.446Z,1200
2016-06-16T09:11:30.417Z,1212
2016-06-16T09:12:30.248Z,1256
2016-06-16T09:13:30.502Z,1292
2016-06-16T09:14:30.645Z,1324
2016-06-16T09:15:30.398Z,1312
2016-06-16T09:16:30.386Z,1320
2016-06-16T09:17:30.248Z,1360
2016-06-16T09:18:30.610Z,1448
2016-06-16T09:19:30.317Z,1096
2016-06-16T09:20:30.866Z,1056
2016-06-16T09:21:30.323Z,1044
2016-06-16T09:22:30.450Z,1084
2016-06-16T09:23:30.266Z,1068
2016-06-16T09:24:30.223Z,1148
2016-06-16T09:25:30.195Z,1316
2016-06-16T09:26:30.667Z,1364
2016-06-16T09:27:30.185Z,1312
2016-06-16T09:28:29.969Z,1280
2016-06-16T09:29:33.019Z,1304
2016-06-16T09:30:30.100Z,1340
2016-06-16T09:31:30.385Z,1476
2016-06-16T09:33:30.220Z,1824
2016-06-16T09:34:30.019Z,1868
2016-06-16T09:35:29.913Z,1772
2016-06-16T09:36:29.916Z,1756
2016-06-16T09:37:29.826Z,1612
2016-06-16T09:38:30.015Z,1516
2016-06-16T09:39:29.628Z,1536
2016-06-16T09:40:29.866Z,1600
2016-06-16T09:41:29.775Z,1496
2016-06-16T09:42:29.794Z,1432
2016-06-16T09:43:29.765Z,1408
2016-06-16T09:44:30.222Z,1420
2016-06-16T09:45:29.865Z,1284
2016-06-16T09:46:29.713Z,1356
2016-06-16T09:47:30.059Z,1332
2016-06-16T09:48:29.702Z,1348
2016-06-16T09:49:29.784Z,1380
2016-06-16T09:50:29.974Z,1416
2016-06-16T09:51:29.681Z,1432
2016-06-16T09:52:29.528Z,1336
2016-06-16T09:53:29.578Z,1352
2016-06-16T09:54:29.611Z,1492
2016-06-16T09:55:29.662Z,1556
2016-06-16T09:56:29.899Z,1512
2016-06-16T09:57:29.605Z,1484
2016-06-16T09:58:30.077Z,1572
2016-06-16T09:59:29.314Z,1452
2016-06-16T10:00:29.474Z,1560
2016-06-16T10:01:29.430Z,1648
2016-06-16T10:02:29.778Z,1672
2016-06-16T10:03:29.609Z,1676
2016-06-16T10:04:29.502Z,1792
2016-06-16T10:05:29.615Z,1780
2016-06-16T10:06:29.446Z,1768
2016-06-16T10:07:30.292Z,1760
2016-06-16T10:08:30.983Z,1768
2016-06-16T10:09:29.720Z,1732
2016-06-16T10:10:29.552Z,1776
2016-06-16T10:11:29.258Z,1772
2016-06-16T10:12:29.183Z,1492
2016-06-16T10:13:29.357Z,1452
2016-06-16T10:14:29.549Z,1448
2016-06-16T10:15:29.177Z,1448
2016-06-16T10:16:29.132Z,1428
2016-06-16T10:17:29.089Z,1460
2016-06-16T10:18:28.935Z,1500
2016-06-16T10:19:29.001Z,1572
2016-06-16T10:20:29.520Z,1712
2016-06-16T10:21:29.164Z,1644
2016-06-16T10:22:28.839Z,1716
2016-06-16T10:23:29.185Z,1744
2016-06-16T10:24:28.954Z,1764
2016-06-16T10:25:29.004Z,1792
2016-06-16T10:26:29.272Z,1836
2016-06-16T10:27:28.933Z,1848
2016-06-16T10:28:28.872Z,1888
2016-06-16T10:29:28.892Z,1884
2016-06-16T10:30:28.832Z,1932
2016-06-16T10:31:28.882Z,1908
2016-06-16T10:32:28.807Z,1900
2016-06-16T10:33:29.076Z,1928
2016-06-16T10:34:28.875Z,1960
2016-06-16T10:35:28.941Z,1976
2016-06-16T10:36:29.053Z,1980
2016-06-16T10:37:28.822Z,2036
2016-06-16T10:38:29.059Z,2076
2016-06-16T10:39:28.609Z,2132
2016-06-16T10:40:28.879Z,2172
2016-06-16T10:41:28.615Z,2184
2016-06-16T10:42:28.634Z,2148
2016-06-16T10:43:28.637Z,2076
2016-06-16T10:44:28.953Z,2020
2016-06-16T10:45:28.472Z,1968
2016-06-16T10:46:28.663Z,1856
2016-06-16T10:47:28.509Z,1740
2016-06-16T10:48:28.559Z,1712
2016-06-16T10:49:28.734Z,1772
2016-06-16T10:50:28.862Z,1724
2016-06-16T10:51:28.287Z,1776
2016-06-16T10:52:28.415Z,1936
2016-06-16T10:53:28.668Z,1780
2016-06-16T10:54:28.266Z,1940
2016-06-16T10:55:28.408Z,1872
2016-06-16T10:56:28.694Z,1808
2016-06-16T10:57:28.415Z,1732
2016-06-16T10:58:28.434Z,1652
2016-06-16T10:59:28.170Z,1576
2016-06-16T11:00:28.424Z,1584
2016-06-16T11:01:28.287Z,1616
2016-06-16T11:02:28.430Z,1592
2016-06-16T11:03:28.294Z,1320
2016-06-16T11:04:28.358Z,1380
2016-06-16T11:07:51.212Z,1488
2016-06-16T11:09:41.436Z,1772
2016-06-16T11:09:55.890Z,1760
2016-06-16T11:10:55.721Z,1740
2016-06-16T11:11:55.677Z,1748
2016-06-16T11:13:40.605Z,2096
2016-06-16T11:13:55.636Z,1968
2016-06-16T11:14:55.639Z,2028
2016-06-16T11:15:55.642Z,1852
2016-06-16T11:17:55.648Z,1788
2016-06-16T11:18:55.870Z,1788
2016-06-16T11:19:55.514Z,1600
2016-06-16T11:20:55.487Z,1664
2016-06-16T11:21:55.552Z,1704
2016-06-16T11:22:55.649Z,1940
2016-06-16T11:23:55.542Z,2060
2016-06-16T11:24:55.842Z,2280
2016-06-16T11:25:55.470Z,2580
2016-06-16T11:26:55.582Z,2396
2016-06-16T11:27:55.414Z,2420
2016-06-16T11:28:55.573Z,2344
2016-06-16T11:29:56.342Z,2380
2016-06-16T11:30:55.548Z,2292
2016-06-16T11:31:55.176Z,2396
2016-06-16T11:32:55.476Z,3112
2016-06-16T11:33:55.370Z,2792
2016-06-16T11:34:55.107Z,2704
2016-06-16T11:35:55.314Z,2608
2016-06-16T11:36:55.598Z,2768
2016-06-16T11:37:55.350Z,3088
2016-06-16T11:38:55.228Z,3080
2016-06-16T11:39:54.841Z,3040
2016-06-16T11:40:55.110Z,3012
2016-06-16T11:41:55.082Z,3064
2016-06-16T11:42:55.475Z,3208
2016-06-16T11:43:54.822Z,3172
2016-06-16T11:44:55.169Z,3292
2016-06-16T11:45:55.172Z,3280
2016-06-16T11:46:55.066Z,2940
2016-06-16T11:47:55.100Z,2820
2016-06-16T11:48:54.993Z,2760
2016-06-16T11:49:55.121Z,2884
2016-06-16T11:50:55.031Z,3120
2016-06-16T11:51:55.050Z,4164
2016-06-16T11:52:54.944Z,7672
2016-06-16T11:53:54.900Z,25792
2016-06-16T11:54:55.340Z,21856
2016-06-16T11:55:54.922Z,9684
2016-06-16T11:56:54.925Z,6920
2016-06-16T11:57:54.646Z,6404
2016-06-16T11:58:55.603Z,7156
2016-06-16T11:59:54.919Z,6856
2016-06-16T12:00:55.093Z,5456
2016-06-16T12:01:54.737Z,5372
2016-06-16T12:02:54.709Z,4112
2016-06-16T12:03:54.727Z,3644
2016-06-16T12:04:54.778Z,4476
2016-06-16T12:05:54.359Z,5968
2016-06-16T12:06:54.971Z,4568
2016-06-16T12:07:54.693Z,3348
2016-06-16T12:08:54.712Z,11716
2016-06-16T12:09:54.777Z,37536
2016-06-16T12:10:54.405Z,22016
2016-06-16T12:11:54.705Z,64352
2016-06-16T12:12:54.911Z,66624
2016-06-16T12:13:54.711Z,66848
2016-06-16T12:14:54.527Z,66304
2016-06-16T12:15:54.577Z,41568
2016-06-16T12:16:54.564Z,8316
2016-06-16T12:17:54.490Z,13636
2016-06-16T12:18:54.743Z,3036
2016-06-16T12:19:54.371Z,2464
2016-06-16T12:20:54.295Z,3144
2016-06-16T12:21:54.205Z,5068
2016-06-16T12:22:54.442Z,3192
2016-06-16T12:23:54.351Z,5760
2016-06-16T12:24:54.699Z,4020
2016-06-16T12:25:54.529Z,4896
2016-06-16T12:26:54.501Z,3128
2016-06-16T12:27:54.301Z,4152
2016-06-16T12:28:54.133Z,7356
2016-06-16T12:29:54.261Z,14304
2016-06-16T12:30:54.561Z,3864
2016-06-16T12:31:54.220Z,62816
2016-06-16T12:32:54.192Z,33952
2016-06-16T12:33:54.617Z,13616
2016-06-16T12:34:54.385Z,7164
2016-06-16T12:35:54.216Z,3692
2016-06-16T12:36:54.954Z,4252
2016-06-16T12:37:54.192Z,3584
2016-06-16T12:38:53.930Z,2968
2016-06-16T12:39:54.135Z,2580
2016-06-16T12:40:54.045Z,2616
2016-06-16T12:41:54.266Z,1932
2016-06-16T12:42:54.269Z,1820
2016-06-16T12:43:54.054Z,1880
2016-06-16T12:44:54.009Z,2056
2016-06-16T12:45:53.982Z,2304
2016-06-16T12:46:53.938Z,2060
2016-06-16T12:47:53.832Z,1676
2016-06-16T12:48:54.272Z,1368
2016-06-16T12:49:53.759Z,1076
2016-06-16T12:50:53.731Z,928
2016-06-16T12:51:53.876Z,820
2016-06-16T12:52:53.863Z,724
2016-06-16T12:59:15.694Z,320
2016-06-16T13:00:15.962Z,280
2016-06-16T13:01:15.700Z,244
2016-06-16T13:02:15.704Z,212
2016-06-16T13:03:15.707Z,188
2016-06-16T13:04:15.850Z,172
2016-06-16T13:05:15.541Z,156
2016-06-16T13:06:15.933Z,144
2016-06-16T13:07:15.547Z,132
2016-06-16T13:08:15.503Z,124
2016-06-16T13:09:15.490Z,112
2016-06-16T13:10:15.462Z,100
2016-06-16T13:11:15.591Z,96
2016-06-16T13:12:15.766Z,88
2016-06-16T13:13:15.441Z,80
2016-06-16T13:14:15.381Z,88
2016-06-16T13:15:15.400Z,96
2016-06-16T13:16:15.528Z,104
2016-06-16T13:17:15.265Z,112
2016-06-16T13:18:15.971Z,116
2016-06-16T13:19:15.334Z,124
2016-06-16T13:20:15.259Z,136
2016-06-16T13:21:15.355Z,140
2016-06-16T13:22:15.280Z,144
2016-06-16T13:23:15.236Z,156
2016-06-16T13:24:15.381Z,160
2016-06-16T13:25:15.320Z,164
2016-06-16T13:26:15.793Z,164
2016-06-16T13:27:15.233Z,160
2016-06-16T13:28:15.174Z,152
2016-06-16T13:29:15.068Z,152
2016-06-16T13:30:15.461Z,152
2016-06-16T13:31:15.167Z,156
2016-06-16T13:32:15.092Z,164
2016-06-16T13:33:15.095Z,168
2016-06-16T13:34:14.989Z,168
2016-06-16T13:35:14.836Z,176
2016-06-16T13:36:15.386Z,184
2016-06-16T13:37:14.889Z,188
2016-06-16T13:38:14.923Z,192
2016-06-16T13:39:14.973Z,204
2016-06-16T13:40:14.914Z,212
2016-06-16T13:41:14.745Z,220
2016-06-16T13:42:15.530Z,224
2016-06-16T13:43:14.673Z,220
2016-06-16T13:44:14.942Z,228
2016-06-16T13:45:14.882Z,232
2016-06-16T13:46:14.760Z,236
2016-06-16T13:47:14.811Z,240
2016-06-16T13:48:15.329Z,256
2016-06-16T13:49:14.551Z,268
2016-06-16T13:50:14.663Z,300
2016-06-16T13:51:14.697Z,332
2016-06-16T13:52:14.795Z,360
2016-06-16T13:53:14.720Z,400
2016-06-16T13:58:58.216Z,436
2016-06-16T13:59:58.267Z,480
2016-06-16T14:00:57.988Z,544
2016-06-16T14:01:58.211Z,612
2016-06-16T14:02:58.307Z,680
2016-06-16T14:03:58.092Z,752
2016-06-16T14:04:58.220Z,816
2016-06-16T14:05:58.269Z,864
2016-06-16T14:06:58.070Z,892
2016-06-16T14:07:58.072Z,920
2016-06-16T14:08:57.936Z,932
2016-06-16T14:09:57.704Z,948
2016-06-16T14:10:58.395Z,984
2016-06-16T14:11:57.694Z,1032
2016-06-16T14:12:57.963Z,1072
2016-06-16T14:13:58.044Z,1104
2016-06-16T14:14:58.125Z,1100
2016-06-16T14:15:57.832Z,1100
2016-06-16T14:16:58.008Z,1108
2016-06-16T14:17:57.823Z,1136
2016-06-16T14:18:57.826Z,1164
2016-06-16T14:19:58.393Z,1192
2016-06-16T14:20:57.928Z,1196
2016-06-16T14:21:57.727Z,1200
2016-06-16T14:22:57.981Z,1212
2016-06-16T14:23:57.701Z,1236
2016-06-16T14:24:57.533Z,1272
2016-06-16T14:25:57.833Z,1308
2016-06-16T14:26:57.664Z,1336
2016-06-16T14:27:57.621Z,1340
2016-06-16T14:28:58.248Z,1352
2016-06-16T14:29:57.674Z,1364
2016-06-16T14:30:57.864Z,1392
2016-06-16T14:31:57.633Z,1440
2016-06-16T14:32:57.184Z,1524
2016-06-16T14:33:57.579Z,1640
2016-06-16T14:34:57.599Z,1812
2016-06-16T14:35:57.558Z,2012
2016-06-16T14:36:57.516Z,2348
2016-06-16T14:37:57.395Z,2836
2016-06-16T14:38:57.462Z,3784
2016-06-16T14:39:57.341Z,5272
2016-06-16T14:40:57.751Z,6292
2016-06-16T14:41:57.302Z,8156
2016-06-16T14:42:57.430Z,10644
2016-06-16T14:43:57.246Z,12200
2016-06-16T14:44:57.297Z,11100
2016-06-16T14:45:57.347Z,14780
2016-06-16T14:46:57.695Z,15968
2016-06-16T14:47:57.228Z,21280
2016-06-16T14:48:57.216Z,24736
2016-06-16T14:49:57.219Z,25280
2016-06-16T14:50:57.161Z,29536
2016-06-16T14:51:57.119Z,17728
2016-06-16T14:52:57.606Z,35008
2016-06-16T14:53:57.080Z,31072
2016-06-16T14:54:57.209Z,22144
2016-06-16T14:55:56.915Z,10176
2016-06-16T14:56:57.169Z,5068
2016-06-16T14:57:57.063Z,2936
2016-06-16T14:58:57.239Z,2704
2016-06-16T14:59:57.054Z,2632
2016-06-16T15:00:57.057Z,2536
2016-06-16T15:01:57.046Z,2380
2016-06-16T15:02:56.861Z,2336
2016-06-16T15:03:56.943Z,2444
2016-06-16T15:04:57.227Z,2516
2016-06-16T15:05:57.027Z,2576
2016-06-16T15:06:56.906Z,2560
2016-06-16T15:07:57.395Z,2488
2016-06-16T15:08:56.852Z,2408
2016-06-16T15:09:56.810Z,2224
2016-06-16T15:10:57.126Z,1948
2016-06-16T15:11:56.754Z,1588
2016-06-16T15:12:56.915Z,1256
2016-06-16T15:13:56.794Z,1000
2016-06-16T15:14:56.750Z,804
2016-06-16T15:15:56.785Z,644
2016-06-16T15:16:57.069Z,516
2016-06-16T15:17:57.307Z,440
2016-06-16T15:18:56.686Z,408
2016-06-16T15:19:56.672Z,364
2016-06-16T15:20:56.598Z,320
2016-06-16T15:21:56.600Z,280
2016-06-16T15:22:56.962Z,252
2016-06-16T15:23:56.404Z,224
2016-06-16T15:24:56.532Z,208
2016-06-16T15:25:56.614Z,208
2016-06-16T15:26:56.585Z,208
2016-06-16T15:27:56.479Z,204
2016-06-16T15:28:56.796Z,208
2016-06-16T15:29:56.393Z,200
2016-06-16T15:30:56.490Z,208
2016-06-16T15:31:56.384Z,216
2016-06-16T15:32:56.496Z,208
2016-06-16T15:33:56.360Z,208
2016-06-16T15:34:56.550Z,216
2016-06-16T15:35:56.334Z,240
2016-06-16T15:36:56.509Z,272
2016-06-16T15:37:56.325Z,288
2016-06-16T15:38:56.250Z,296
2016-06-16T15:39:56.347Z,296
2016-06-16T15:40:56.476Z,296
2016-06-16T15:41:56.313Z,296
2016-06-16T15:42:56.195Z,308
2016-06-16T15:43:56.359Z,316
2016-06-16T15:44:56.179Z,328
2016-06-16T15:45:55.998Z,344
2016-06-16T15:46:56.128Z,352
2016-06-16T15:47:56.134Z,364
2016-06-16T15:48:56.091Z,380
2016-06-16T15:49:56.175Z,400
2016-06-16T15:50:56.179Z,424
2016-06-16T15:52:56.484Z,476
2016-06-16T15:53:55.987Z,500
2016-06-16T15:54:55.976Z,524
2016-06-16T15:55:55.948Z,552
2016-06-16T15:56:55.921Z,576
2016-06-16T15:57:56.159Z,600
2016-06-16T15:58:56.226Z,612
2016-06-16T15:59:56.135Z,616
2016-06-16T16:00:55.857Z,608
2016-06-16T16:01:55.939Z,596
2016-06-16T16:02:56.036Z,596
2016-06-16T16:03:55.790Z,612
2016-06-16T16:04:56.153Z,648
2016-06-16T16:05:55.889Z,704
2016-06-16T16:06:55.737Z,776
2016-06-16T16:07:55.632Z,844
2016-06-16T16:08:55.713Z,908
2016-06-16T16:09:55.686Z,984
2016-06-16T16:10:56.032Z,1092
2016-06-16T16:11:55.614Z,1208
2016-06-16T16:12:55.992Z,1328
2016-06-16T16:13:55.574Z,1432
2016-06-16T16:14:55.593Z,1524
2016-06-16T16:15:55.688Z,1620
2016-06-16T16:16:55.832Z,1696
2016-06-16T16:17:55.537Z,1720
2016-06-16T16:18:55.569Z,1724
2016-06-16T16:19:55.478Z,1708
2016-06-16T16:20:55.528Z,1660
2016-06-16T16:21:55.889Z,1612
2016-06-16T16:22:55.768Z,1588
2016-06-16T16:23:55.459Z,1564
2016-06-16T16:24:55.383Z,1520
2016-06-16T16:25:55.356Z,1504
2016-06-16T16:26:55.328Z,1476
2016-06-16T16:27:55.472Z,1480
2016-06-16T16:28:55.648Z,1468
2016-06-16T16:29:55.432Z,1384
2016-06-16T16:30:55.436Z,1240
2016-06-16T16:31:55.221Z,1076
2016-06-16T16:32:55.270Z,980
2016-06-16T16:33:55.212Z,988
2016-06-16T16:34:55.387Z,968
2016-06-16T16:35:55.249Z,920
2016-06-16T16:36:55.207Z,952
2016-06-16T16:37:55.068Z,1016
2016-06-16T16:38:55.197Z,1040
2016-06-16T16:39:55.076Z,1028
2016-06-16T16:40:55.392Z,1004
2016-06-16T16:41:55.099Z,1024
2016-06-16T16:42:55.118Z,1124
2016-06-16T16:43:55.090Z,1184
2016-06-16T16:44:54.968Z,1140
2016-06-16T16:45:55.081Z,1072
2016-06-16T16:46:55.413Z,1020
2016-06-16T16:47:54.916Z,1004
2016-06-16T16:48:54.889Z,952
2016-06-16T16:49:54.704Z,904
2016-06-16T16:50:54.724Z,888
2016-06-16T16:51:54.882Z,920
2016-06-16T16:52:55.167Z,952
2016-06-16T16:53:54.794Z,932
2016-06-16T16:54:54.797Z,928
2016-06-16T16:55:54.879Z,944
2016-06-16T16:56:54.477Z,936
2016-06-16T16:57:54.761Z,924
2016-06-16T16:58:55.078Z,880
2016-06-16T16:59:54.675Z,816
2016-06-16T17:00:54.662Z,732
2016-06-16T17:01:54.744Z,648
2016-06-16T17:02:54.607Z,572
2016-06-16T17:03:54.642Z,504
2016-06-16T17:04:54.754Z,480
2016-06-16T17:05:55.070Z,468
2016-06-16T17:06:54.574Z,468
2016-06-16T17:07:54.453Z,468
2016-06-16T17:08:54.596Z,468
2016-06-16T17:09:54.460Z,460
2016-06-16T17:10:54.806Z,460
2016-06-16T17:11:54.764Z,500
2016-06-16T17:12:54.392Z,544
2016-06-16T17:13:54.583Z,596
2016-06-16T17:14:54.602Z,620
2016-06-16T17:16:08.511Z,632
2016-06-16T17:16:54.624Z,668
2016-06-16T17:17:54.315Z,588
2016-06-16T17:18:54.319Z,528
2016-06-16T17:19:54.291Z,476
2016-06-16T17:20:54.294Z,404
2016-06-16T17:21:54.407Z,364
2016-06-16T17:23:07.973Z,336
2016-06-16T17:23:54.524Z,332
2016-06-16T17:24:54.218Z,348
2016-06-16T17:25:54.443Z,348
2016-06-16T17:26:54.213Z,356
2016-06-16T17:27:54.171Z,364
2016-06-16T17:28:54.300Z,364
2016-06-16T17:29:54.305Z,360
2016-06-16T17:30:54.075Z,368
2016-06-16T17:31:54.048Z,404
2016-06-16T17:32:54.178Z,444
2016-06-16T17:33:53.868Z,480
2016-06-16T17:34:54.482Z,476
2016-06-16T17:35:54.032Z,448
2016-06-16T17:36:53.943Z,440
2016-06-16T17:37:54.009Z,448
2016-06-16T17:38:54.043Z,464
2016-06-16T17:39:53.938Z,468
2016-06-16T17:40:54.317Z,464
2016-06-16T17:41:53.789Z,448
2016-06-16T17:42:53.854Z,504
2016-06-16T17:43:53.858Z,528
2016-06-16T17:44:53.939Z,484
2016-06-16T17:45:53.834Z,452
2016-06-16T17:46:54.150Z,484
2016-06-16T17:47:53.590Z,528
2016-06-16T17:48:53.702Z,496
2016-06-16T17:49:53.769Z,460
2016-06-16T17:50:53.804Z,428
2016-06-16T17:51:53.496Z,412
2016-06-16T17:52:54.092Z,396
2016-06-16T17:53:53.736Z,392
2016-06-16T17:54:54.037Z,452
2016-06-16T17:55:53.618Z,480
2016-06-16T17:56:53.605Z,504
2016-06-16T17:57:53.750Z,580
2016-06-16T17:58:53.862Z,632
2016-06-16T17:59:53.491Z,584
2016-06-16T18:00:54.120Z,524
2016-06-16T18:01:53.514Z,484
2016-06-16T18:02:53.409Z,508
2016-06-16T18:03:53.255Z,480
2016-06-16T18:04:53.915Z,492
2016-06-16T18:05:53.294Z,472
2016-06-16T18:06:53.422Z,452
2016-06-16T18:07:53.457Z,468
2016-06-16T18:08:53.444Z,472
2016-06-16T18:09:53.291Z,476
2016-06-16T18:10:53.623Z,460
2016-06-16T18:11:53.611Z,416
2016-06-16T18:12:53.255Z,396
2016-06-16T18:13:53.275Z,380
2016-06-16T18:14:53.339Z,368
2016-06-16T18:15:53.671Z,380
2016-06-16T18:16:53.503Z,388
2016-06-16T18:17:53.225Z,392
2016-06-16T18:18:53.136Z,372
2016-06-16T18:19:53.092Z,360
2016-06-16T18:20:53.267Z,316
2016-06-16T18:21:53.083Z,288
2016-06-16T18:22:53.415Z,284
2016-06-16T18:23:53.278Z,280
2016-06-16T18:24:53.046Z,280
2016-06-16T18:25:52.285Z,252
2016-06-16T18:26:53.100Z,292
2016-06-16T18:27:53.026Z,296
2016-06-16T18:28:53.452Z,288
2016-06-16T18:29:52.830Z,288
2016-06-16T18:30:53.005Z,276
2016-06-16T18:31:52.885Z,244
2016-06-16T18:32:52.858Z,216
2016-06-16T18:33:53.130Z,212
2016-06-16T18:34:53.291Z,208
2016-06-16T18:35:52.796Z,204
2016-06-16T18:36:52.942Z,204
2016-06-16T18:37:52.743Z,200
2016-06-16T18:38:53.137Z,196
2016-06-16T18:39:52.721Z,192
2016-06-16T18:40:53.083Z,196
2016-06-16T18:41:52.744Z,196
2016-06-16T18:42:52.778Z,200
2016-06-16T18:43:52.657Z,212
2016-06-16T18:44:52.660Z,236
2016-06-16T18:45:52.695Z,264
2016-06-16T18:46:53.183Z,276
2016-06-16T18:47:52.639Z,280
2016-06-16T18:48:52.706Z,256
2016-06-16T18:49:52.335Z,236
2016-06-16T18:50:52.760Z,224
2016-06-16T18:51:52.341Z,228
2016-06-16T18:52:52.922Z,220
2016-06-16T18:53:52.410Z,208
2016-06-16T18:54:52.727Z,208
2016-06-16T18:55:52.433Z,208
2016-06-16T18:56:52.577Z,208
2016-06-16T18:57:52.440Z,196
2016-06-16T18:58:52.740Z,176
2016-06-16T18:59:52.337Z,168
2016-06-16T19:00:52.419Z,160
2016-06-16T19:01:52.298Z,152
2016-06-16T19:02:52.302Z,140
2016-06-16T19:03:52.304Z,128
2016-06-16T19:04:52.573Z,112
2016-06-16T19:05:52.202Z,84
2016-06-16T19:06:52.284Z,68
2016-06-16T19:08:05.992Z,56
2016-06-16T19:08:52.261Z,48
2016-06-16T19:09:52.266Z,44
2016-06-16T19:10:52.253Z,40
2016-06-16T19:11:52.040Z,40
2016-06-16T19:12:52.091Z,36
2016-06-16T19:13:52.140Z,40
2016-06-16T19:14:52.019Z,44
2016-06-16T19:15:52.147Z,44
2016-06-16T19:16:52.356Z,48
2016-06-16T19:17:52.265Z,48
2016-06-16T19:18:52.018Z,52
2016-06-16T19:19:51.803Z,56
2016-06-16T19:20:52.306Z,60
2016-06-16T19:21:51.793Z,64
2016-06-16T19:22:52.173Z,68
2016-06-16T19:23:51.816Z,64
2016-06-16T19:24:51.851Z,56
2016-06-16T19:25:51.636Z,52
2016-06-16T19:26:51.640Z,48
2016-06-16T19:27:51.612Z,52
2016-06-16T19:28:52.256Z,44
2016-06-16T19:29:51.915Z,44
2016-06-16T19:30:51.810Z,36
2016-06-16T19:31:51.703Z,28
2016-06-16T19:32:52.254Z,24
2016-06-16T19:33:51.679Z,24
2016-06-16T19:34:51.979Z,20
2016-06-16T19:35:51.796Z,20
2016-06-16T19:36:51.580Z,20
2016-06-16T19:37:51.381Z,20
2016-06-16T19:38:51.821Z,20
2016-06-16T19:39:51.481Z,20
2016-06-16T19:40:51.844Z,20
2016-06-16T19:41:51.442Z,16
2016-06-16T19:42:51.273Z,12
2016-06-16T19:43:51.527Z,12
2016-06-16T19:44:52.545Z,16
2016-06-16T19:45:51.956Z,12
2016-06-16T19:46:52.302Z,12
2016-06-16T19:47:51.384Z,12
2016-06-16T19:48:51.341Z,12
2016-06-16T19:49:51.345Z,12
2016-06-16T19:50:51.535Z,12
2016-06-16T19:51:51.398Z,12
2016-06-16T19:52:51.558Z,8
2016-06-16T19:53:51.295Z,8
2016-06-16T19:54:51.221Z,8
2016-06-16T19:55:51.146Z,8
2016-06-16T19:56:51.009Z,8
2016-06-16T19:57:51.247Z,4
2016-06-16T19:58:51.501Z,4
2016-06-16T19:59:51.144Z,4
2016-06-16T20:00:51.039Z,4
2016-06-16T20:01:51.182Z,4
2016-06-16T20:02:51.107Z,4
2016-06-16T20:03:51.486Z,4
2016-06-16T20:04:51.225Z,4
2016-06-16T20:05:51.025Z,4
2016-06-16T20:06:50.949Z,8
2016-06-16T20:07:50.921Z,4
2016-06-16T20:08:50.894Z,4
2016-06-16T20:09:50.882Z,4
2016-06-16T20:10:51.307Z,0
2016-06-16T20:11:50.858Z,4
2016-06-16T20:12:51.033Z,4
2016-06-16T20:13:50.771Z,4
2016-06-16T20:14:50.964Z,4
2016-06-16T20:15:50.984Z,0
2016-06-16T20:16:51.114Z,0
2016-06-16T20:17:50.588Z,0
2016-06-16T20:18:50.687Z,0
2016-06-16T20:19:50.769Z,4
2016-06-16T20:20:50.695Z,4
2016-06-16T20:21:50.684Z,0
2016-06-16T20:22:51.031Z,0
2016-06-16T20:23:50.640Z,0
2016-06-16T20:24:50.567Z,0
2016-06-16T20:25:50.742Z,0
2016-06-16T20:26:50.401Z,0
2016-06-16T20:27:51.081Z,0
2016-06-16T20:28:50.706Z,0
2016-06-16T20:29:50.536Z,0
2016-06-16T20:30:50.353Z,0
2016-06-16T20:31:50.482Z,0
2016-06-16T20:32:50.485Z,0
2016-06-16T20:33:50.411Z,0
2016-06-16T20:34:50.742Z,0
2016-06-16T20:35:50.432Z,0
2016-06-16T20:36:50.436Z,0
2016-06-16T20:37:50.253Z,0
2016-06-16T20:38:50.365Z,0
2016-06-16T20:39:50.244Z,0
2016-06-16T20:40:50.622Z,0
2016-06-16T20:41:50.250Z,0
2016-06-16T20:42:50.614Z,0
2016-06-16T20:43:50.351Z,0
2016-06-16T20:44:50.058Z,0
2016-06-16T20:45:50.171Z,0
2016-06-16T20:46:50.643Z,0
2016-06-16T20:47:50.146Z,0
2016-06-16T20:48:50.150Z,0
2016-06-16T20:49:50.060Z,0
2016-06-16T20:50:50.484Z,0
2016-06-16T20:51:49.988Z,0
2016-06-16T20:52:50.210Z,0
2016-06-16T20:53:50.027Z,0
2016-06-16T20:54:49.530Z,0
2016-06-16T20:55:49.924Z,0
2016-06-16T20:56:50.459Z,0
2016-06-16T20:57:49.837Z,0
2016-06-16T20:58:50.247Z,0
2016-06-16T20:59:49.750Z,0
2016-06-16T21:00:49.832Z,0
2016-06-16T21:01:49.804Z,0
2016-06-16T21:02:49.823Z,0
2016-06-16T21:03:49.859Z,0
2016-06-16T21:04:50.112Z,0
2016-06-16T21:05:49.740Z,0
2016-06-16T21:06:49.822Z,0
2016-06-16T21:07:50.247Z,0
2016-06-16T21:08:49.578Z,0
2016-06-16T21:09:49.519Z,0
2016-06-16T21:10:49.836Z,0
2016-06-16T21:11:49.464Z,0
2016-06-16T21:12:49.811Z,0
2016-06-16T21:13:49.580Z,0
2016-06-16T21:14:49.365Z,0
2016-06-16T21:15:49.400Z,0
2016-06-16T21:16:50.637Z,0
2016-06-16T21:17:49.532Z,0
2016-06-16T21:18:49.535Z,0
2016-06-16T21:19:49.476Z,0
2016-06-16T21:20:49.557Z,0